createdAt,value
2018-12-06T00:01:17.542Z,8.40
2018-12-06T00:03:45.888Z,8.40
2018-12-06T00:06:14.840Z,8.30
2018-12-06T00:08:43.220Z,8.20
2018-12-06T00:11:11.505Z,8.30
2018-12-06T00:13:39.855Z,8.30
2018-12-06T00:16:08.147Z,8.20
2018-12-06T00:18:36.499Z,8.20
2018-12-06T00:21:04.784Z,8.20
2018-12-06T00:23:33.235Z,8.20
2018-12-06T00:26:01.519Z,8.20
2018-12-06T00:28:36.277Z,8.20
2018-12-06T00:31:04.614Z,8.10
2018-12-06T00:33:32.879Z,8.10
2018-12-06T00:36:01.179Z,8.10
2018-12-06T00:38:29.475Z,8.10
2018-12-06T00:40:57.761Z,8.20
2018-12-06T00:43:26.127Z,8.10
2018-12-06T00:45:54.628Z,8.20
2018-12-06T00:48:22.895Z,8.20
2018-12-06T00:50:51.173Z,8.20
2018-12-06T00:53:19.781Z,8.20
2018-12-06T00:55:48.057Z,8.20
2018-12-06T00:58:16.323Z,8.20
2018-12-06T01:00:44.594Z,8.30
2018-12-06T01:03:13.157Z,8.30
2018-12-06T01:05:41.403Z,8.30
2018-12-06T01:08:09.767Z,8.30
2018-12-06T01:10:38.032Z,8.30
2018-12-06T01:13:06.279Z,8.30
2018-12-06T01:15:34.735Z,8.30
2018-12-06T01:18:02.991Z,8.40
2018-12-06T01:20:31.275Z,8.40
2018-12-06T01:22:59.639Z,8.40
2018-12-06T01:25:27.923Z,8.40
2018-12-06T01:27:56.175Z,8.40
2018-12-06T01:30:24.467Z,8.40
2018-12-06T01:32:52.725Z,8.40
2018-12-06T01:35:21.073Z,8.40
2018-12-06T01:37:49.419Z,8.40
2018-12-06T01:40:17.671Z,8.40
2018-12-06T01:42:46.619Z,8.40
2018-12-06T01:45:15.069Z,8.40
2018-12-06T01:47:43.358Z,8.40
2018-12-06T01:50:11.712Z,8.40
2018-12-06T01:52:40.068Z,8.40
2018-12-06T01:55:08.539Z,8.40
2018-12-06T01:57:36.778Z,8.40
2018-12-06T02:00:06.270Z,8.40
2018-12-06T02:02:34.550Z,8.40
2018-12-06T02:05:03.003Z,8.50
2018-12-06T02:07:31.348Z,8.50
2018-12-06T02:09:59.619Z,8.40
2018-12-06T02:12:27.890Z,8.40
2018-12-06T02:14:56.299Z,8.40
2018-12-06T02:17:24.560Z,8.40
2018-12-06T02:19:52.831Z,8.40
2018-12-06T02:22:21.083Z,8.40
2018-12-06T02:24:49.365Z,8.40
2018-12-06T02:27:17.722Z,8.40
2018-12-06T02:29:51.479Z,8.50
2018-12-06T02:32:19.748Z,8.40
2018-12-06T02:34:48.107Z,8.50
2018-12-06T02:37:16.384Z,8.50
2018-12-06T02:39:44.653Z,8.50
2018-12-06T02:42:13.019Z,8.40
2018-12-06T02:44:41.313Z,8.50
2018-12-06T02:47:09.587Z,8.50
2018-12-06T02:49:37.869Z,8.50
2018-12-06T02:52:14.383Z,8.50
2018-12-06T02:54:42.657Z,8.50
2018-12-06T02:57:10.992Z,8.60
2018-12-06T02:59:39.579Z,8.60
2018-12-06T03:02:07.863Z,8.60
2018-12-06T03:04:36.096Z,8.60
2018-12-06T03:07:04.552Z,8.60
2018-12-06T03:09:32.811Z,8.70
2018-12-06T03:12:01.085Z,8.70
2018-12-06T03:14:29.430Z,8.70
2018-12-06T03:16:57.687Z,8.70
2018-12-06T03:19:26.054Z,8.70
2018-12-06T03:21:54.508Z,8.80
2018-12-06T03:24:22.967Z,8.80
2018-12-06T03:26:51.195Z,8.80
2018-12-06T03:29:19.565Z,8.80
2018-12-06T03:31:47.892Z,8.90
2018-12-06T03:34:16.218Z,8.90
2018-12-06T03:36:44.540Z,8.90
2018-12-06T03:39:12.811Z,8.90
2018-12-06T03:41:41.419Z,8.90
2018-12-06T03:44:16.896Z,10.20
2018-12-06T03:46:45.182Z,8.90
2018-12-06T03:49:13.535Z,9.00
2018-12-06T03:51:41.848Z,9.00
2018-12-06T03:54:10.116Z,9.00
2018-12-06T03:56:38.447Z,9.00
2018-12-06T03:59:06.753Z,9.00
2018-12-06T04:01:35.062Z,9.10
2018-12-06T04:04:03.328Z,9.10
2018-12-06T04:06:31.661Z,9.00
2018-12-06T04:08:59.899Z,9.10
2018-12-06T04:11:28.241Z,9.10
2018-12-06T04:13:56.615Z,9.10
2018-12-06T04:16:24.913Z,9.00
2018-12-06T04:18:53.425Z,9.10
2018-12-06T04:21:21.812Z,9.00
2018-12-06T04:23:50.155Z,9.10
2018-12-06T04:26:18.443Z,9.10
2018-12-06T04:28:46.724Z,9.00
2018-12-06T04:31:15.077Z,9.00
2018-12-06T04:33:43.416Z,9.00
2018-12-06T04:36:11.695Z,9.10
2018-12-06T04:38:40.024Z,9.10
2018-12-06T04:41:08.383Z,9.00
2018-12-06T04:43:36.800Z,9.00
2018-12-06T04:46:05.152Z,9.00
2018-12-06T04:48:33.533Z,8.90
2018-12-06T04:51:01.811Z,8.90
2018-12-06T04:53:30.091Z,8.90
2018-12-06T04:55:58.410Z,8.90
2018-12-06T04:58:26.777Z,8.90
2018-12-06T05:00:55.165Z,9.00
2018-12-06T05:03:23.435Z,8.90
2018-12-06T05:05:51.739Z,8.90
2018-12-06T05:08:20.015Z,8.90
2018-12-06T05:10:48.305Z,8.90
2018-12-06T05:13:16.656Z,8.90
2018-12-06T05:15:45.031Z,8.90
2018-12-06T05:18:13.319Z,8.90
2018-12-06T05:20:41.672Z,8.90
2018-12-06T05:23:09.945Z,8.90
2018-12-06T05:25:38.288Z,8.90
2018-12-06T05:28:06.567Z,8.90
2018-12-06T05:30:35.116Z,8.90
2018-12-06T05:33:03.384Z,8.80
2018-12-06T05:35:31.751Z,8.80
2018-12-06T05:38:00.031Z,8.70
2018-12-06T05:40:28.288Z,8.70
2018-12-06T05:42:57.552Z,8.70
2018-12-06T05:45:26.003Z,8.60
2018-12-06T05:47:54.312Z,8.60
2018-12-06T05:50:22.755Z,8.50
2018-12-06T05:52:51.096Z,8.60
2018-12-06T05:55:19.412Z,8.50
2018-12-06T05:57:48.280Z,8.50
2018-12-06T06:00:17.911Z,8.50
2018-12-06T06:02:46.186Z,8.50
2018-12-06T06:05:14.603Z,8.50
2018-12-06T06:07:42.915Z,8.40
2018-12-06T06:10:11.176Z,8.40
2018-12-06T06:12:39.461Z,8.40
2018-12-06T06:15:07.812Z,8.40
2018-12-06T06:17:36.114Z,8.40
2018-12-06T06:20:05.980Z,8.50
2018-12-06T06:22:34.283Z,8.50
2018-12-06T06:25:02.817Z,8.50
2018-12-06T06:27:31.147Z,8.50
2018-12-06T06:30:00.147Z,8.50
2018-12-06T06:32:28.448Z,8.50
2018-12-06T06:34:56.848Z,8.50
2018-12-06T06:37:25.262Z,8.50
2018-12-06T06:39:53.555Z,8.50
2018-12-06T06:42:21.869Z,8.50
2018-12-06T06:44:50.149Z,8.50
2018-12-06T06:47:18.495Z,8.60
2018-12-06T06:49:46.859Z,8.60
2018-12-06T06:52:15.240Z,8.60
2018-12-06T06:54:43.620Z,8.60
2018-12-06T06:57:11.941Z,8.70
2018-12-06T06:59:40.307Z,8.70
2018-12-06T07:02:08.681Z,8.70
2018-12-06T07:04:37.023Z,8.70
2018-12-06T07:07:05.355Z,8.70
2018-12-06T07:09:33.746Z,8.70
2018-12-06T07:12:02.103Z,8.70
2018-12-06T07:14:30.385Z,8.70
2018-12-06T07:16:58.840Z,8.70
2018-12-06T07:19:27.123Z,8.80
2018-12-06T07:21:55.398Z,8.80
2018-12-06T07:24:23.777Z,8.80
2018-12-06T07:26:52.169Z,8.80
2018-12-06T07:29:20.443Z,8.80
2018-12-06T07:31:48.975Z,8.80
2018-12-06T07:34:17.727Z,8.80
2018-12-06T07:36:46.111Z,8.80
2018-12-06T07:39:14.379Z,8.90
2018-12-06T07:41:42.995Z,8.90
2018-12-06T07:44:11.252Z,8.90
2018-12-06T07:46:39.617Z,9.00
2018-12-06T07:49:07.959Z,9.00
2018-12-06T07:51:36.270Z,9.00
2018-12-06T07:54:04.692Z,9.00
2018-12-06T07:56:32.948Z,9.00
2018-12-06T07:59:01.212Z,9.00
2018-12-06T08:01:29.452Z,9.00
2018-12-06T08:03:57.703Z,7.80
2018-12-06T08:06:25.985Z,9.10
2018-12-06T08:08:54.248Z,9.10
2018-12-06T08:11:22.539Z,9.10
2018-12-06T08:13:50.836Z,9.10
2018-12-06T08:16:19.148Z,9.10
2018-12-06T08:18:47.547Z,9.20
2018-12-06T08:21:16.013Z,9.20
2018-12-06T08:23:44.283Z,9.20
2018-12-06T08:26:12.527Z,9.30
2018-12-06T08:28:40.784Z,9.30
2018-12-06T08:31:09.123Z,9.30
2018-12-06T08:33:37.515Z,9.40
2018-12-06T08:36:05.850Z,9.40
2018-12-06T08:38:34.203Z,9.50
2018-12-06T08:41:02.478Z,9.50
2018-12-06T08:43:31.833Z,9.50
2018-12-06T08:46:00.203Z,9.50
2018-12-06T08:48:28.499Z,9.50
2018-12-06T08:50:57.111Z,9.60
2018-12-06T08:53:26.095Z,9.60
2018-12-06T08:55:54.467Z,9.60
2018-12-06T08:58:23.068Z,9.60
2018-12-06T09:00:51.351Z,9.60
2018-12-06T09:03:19.632Z,9.60
2018-12-06T09:05:47.932Z,9.70
2018-12-06T09:08:16.347Z,9.70
2018-12-06T09:10:51.352Z,9.80
2018-12-06T09:13:14.979Z,9.80
2018-12-06T09:15:43.319Z,9.80
2018-12-06T09:18:11.591Z,9.80
2018-12-06T09:20:39.915Z,9.80
2018-12-06T09:23:08.595Z,9.90
2018-12-06T09:25:36.968Z,9.90
2018-12-06T09:28:05.244Z,9.90
2018-12-06T09:30:33.689Z,9.90
2018-12-06T09:33:02.072Z,10.00
2018-12-06T09:35:30.372Z,10.00
2018-12-06T09:37:58.725Z,10.10
2018-12-06T09:40:27.156Z,10.10
2018-12-06T09:42:55.548Z,10.10
2018-12-06T09:45:23.786Z,10.10
2018-12-06T09:47:52.275Z,10.20
2018-12-06T09:50:20.605Z,10.20
2018-12-06T09:52:49.036Z,10.20
2018-12-06T09:55:17.420Z,10.30
2018-12-06T09:57:45.775Z,10.30
2018-12-06T10:00:16.385Z,10.30
2018-12-06T10:02:44.760Z,10.30
2018-12-06T10:05:13.251Z,10.30
2018-12-06T10:07:42.246Z,10.40
2018-12-06T10:10:10.754Z,10.40
2018-12-06T10:12:39.132Z,10.40
2018-12-06T10:15:07.947Z,10.50
2018-12-06T10:17:36.232Z,10.40
2018-12-06T10:20:06.548Z,10.50
2018-12-06T10:22:35.319Z,10.50
2018-12-06T10:25:03.900Z,10.60
2018-12-06T10:27:32.187Z,10.50
2018-12-06T10:30:00.466Z,10.60
2018-12-06T10:32:28.867Z,10.60
2018-12-06T10:34:57.158Z,10.60
2018-12-06T10:37:25.500Z,10.60
2018-12-06T10:39:53.861Z,10.60
2018-12-06T10:42:22.211Z,10.60
2018-12-06T10:44:50.932Z,10.70
2018-12-06T10:47:19.248Z,10.70
2018-12-06T10:49:47.499Z,10.70
2018-12-06T10:52:15.787Z,10.70
2018-12-06T10:54:44.087Z,10.80
2018-12-06T10:57:12.488Z,10.80
2018-12-06T10:59:40.813Z,10.90
2018-12-06T11:02:14.672Z,10.90
2018-12-06T11:04:42.998Z,10.90
2018-12-06T11:07:11.399Z,10.90
2018-12-06T11:09:39.756Z,10.90
2018-12-06T11:12:08.101Z,10.90
2018-12-06T11:14:36.355Z,10.90
2018-12-06T11:17:04.808Z,10.90
2018-12-06T11:19:33.206Z,10.90
2018-12-06T11:22:01.684Z,10.90
2018-12-06T11:24:30.040Z,11.00
2018-12-06T11:26:58.399Z,11.00
2018-12-06T11:29:26.746Z,11.10
2018-12-06T11:31:55.101Z,11.00
2018-12-06T11:34:23.420Z,11.00
2018-12-06T11:36:51.795Z,11.00
2018-12-06T11:39:20.087Z,11.00
2018-12-06T11:41:48.486Z,11.00
2018-12-06T11:44:16.832Z,11.00
2018-12-06T11:46:45.324Z,11.00
2018-12-06T11:49:13.637Z,11.00
2018-12-06T11:51:41.911Z,11.00
2018-12-06T11:54:10.217Z,11.00
2018-12-06T11:56:38.519Z,11.10
2018-12-06T11:59:06.779Z,11.10
2018-12-06T12:01:35.226Z,11.10
2018-12-06T12:04:03.720Z,11.20
2018-12-06T12:06:32.821Z,11.20
2018-12-06T12:09:01.117Z,11.30
2018-12-06T12:11:29.546Z,11.30
2018-12-06T12:13:57.912Z,11.30
2018-12-06T12:16:26.252Z,11.30
2018-12-06T12:18:54.832Z,11.30
2018-12-06T12:21:23.204Z,11.30
2018-12-06T12:23:51.511Z,11.30
2018-12-06T12:26:20.088Z,11.30
2018-12-06T12:28:48.344Z,11.30
2018-12-06T12:31:16.795Z,11.30
2018-12-06T12:33:45.159Z,11.40
2018-12-06T12:36:14.224Z,11.50
2018-12-06T12:38:42.600Z,11.50
2018-12-06T12:41:10.947Z,11.50
2018-12-06T12:43:39.610Z,11.50
2018-12-06T12:46:07.931Z,11.60
2018-12-06T12:48:36.342Z,11.60
2018-12-06T12:51:04.616Z,11.60
2018-12-06T12:53:32.905Z,11.60
2018-12-06T12:56:01.269Z,11.60
2018-12-06T12:58:29.632Z,11.60
2018-12-06T13:00:57.988Z,11.70
2018-12-06T13:03:26.373Z,11.60
2018-12-06T13:05:54.713Z,11.60
2018-12-06T13:08:23.053Z,11.70
2018-12-06T13:10:51.452Z,11.70
2018-12-06T13:13:19.740Z,11.70
2018-12-06T13:15:47.999Z,11.70
2018-12-06T13:18:16.380Z,11.70
2018-12-06T13:20:44.632Z,11.70
2018-12-06T13:23:12.928Z,11.70
2018-12-06T13:25:41.204Z,11.70
2018-12-06T13:28:09.474Z,11.70
2018-12-06T13:30:38.003Z,11.70
2018-12-06T13:33:06.396Z,11.70
2018-12-06T13:35:34.724Z,11.80
2018-12-06T13:38:03.069Z,11.70
2018-12-06T13:40:31.420Z,11.70
2018-12-06T13:43:00.047Z,11.70
2018-12-06T13:45:28.595Z,11.60
2018-12-06T13:47:57.188Z,11.60
2018-12-06T13:50:25.560Z,11.70
2018-12-06T13:52:53.864Z,11.60
2018-12-06T13:55:22.209Z,11.60
2018-12-06T13:57:50.546Z,11.60
2018-12-06T14:00:18.859Z,11.60
2018-12-06T14:02:47.308Z,11.60
2018-12-06T14:05:15.655Z,11.60
2018-12-06T14:07:44.020Z,11.70
2018-12-06T14:10:12.503Z,11.70
2018-12-06T14:12:40.790Z,11.70
2018-12-06T14:15:09.373Z,11.60
2018-12-06T14:17:37.692Z,11.60
2018-12-06T14:20:07.841Z,11.70
2018-12-06T14:22:36.243Z,11.70
2018-12-06T14:25:05.791Z,11.60
2018-12-06T14:27:34.095Z,11.60
2018-12-06T14:30:02.394Z,11.60
2018-12-06T14:32:30.781Z,11.50
2018-12-06T14:34:59.117Z,11.50
2018-12-06T14:37:27.547Z,11.50
2018-12-06T14:39:56.346Z,11.50
2018-12-06T14:42:24.713Z,11.50
2018-12-06T14:44:53.011Z,11.50
2018-12-06T14:47:21.395Z,11.50
2018-12-06T14:49:49.753Z,11.60
2018-12-06T14:52:18.232Z,11.60
2018-12-06T14:54:46.583Z,11.60
2018-12-06T14:57:15.196Z,11.50
2018-12-06T14:59:43.476Z,11.50
2018-12-06T15:02:11.840Z,11.50
2018-12-06T15:04:40.276Z,11.50
2018-12-06T15:07:08.605Z,11.50
2018-12-06T15:09:36.895Z,11.50
2018-12-06T15:12:05.279Z,11.50
2018-12-06T15:14:33.666Z,11.50
2018-12-06T15:17:02.036Z,11.50
2018-12-06T15:19:30.331Z,11.50
2018-12-06T15:21:58.791Z,11.50
2018-12-06T15:24:27.183Z,11.50
2018-12-06T15:27:27.901Z,11.50
2018-12-06T15:29:56.556Z,11.60
2018-12-06T15:32:24.875Z,11.50
2018-12-06T15:34:53.264Z,11.50
2018-12-06T15:37:21.641Z,11.50
2018-12-06T15:39:50.099Z,11.50
2018-12-06T15:42:18.400Z,11.50
2018-12-06T15:44:46.739Z,11.50
2018-12-06T15:47:15.148Z,11.60
2018-12-06T15:49:43.467Z,11.60
2018-12-06T15:52:11.780Z,11.60
2018-12-06T15:54:40.113Z,11.60
2018-12-06T15:57:20.827Z,11.60
2018-12-06T15:59:49.175Z,11.60
2018-12-06T16:02:17.655Z,11.60
2018-12-06T16:04:46.010Z,11.60
2018-12-06T16:07:14.462Z,11.60
2018-12-06T16:09:42.752Z,11.70
2018-12-06T16:12:11.105Z,11.70
2018-12-06T16:14:51.215Z,11.70
2018-12-06T16:17:19.535Z,11.70
2018-12-06T16:19:49.536Z,11.80
2018-12-06T16:22:18.127Z,11.80
2018-12-06T16:24:46.378Z,11.80
2018-12-06T16:27:15.272Z,11.80
2018-12-06T16:29:51.207Z,11.80
2018-12-06T16:32:13.856Z,11.70
2018-12-06T16:34:42.081Z,11.70
2018-12-06T16:37:10.470Z,11.70
2018-12-06T16:39:39.036Z,11.80
2018-12-06T16:42:07.349Z,11.80
2018-12-06T16:44:35.647Z,11.80
2018-12-06T16:47:11.471Z,11.80
2018-12-06T16:49:40.195Z,11.80
2018-12-06T16:52:08.675Z,11.70
2018-12-06T16:54:36.984Z,11.70
2018-12-06T16:57:05.302Z,11.70
2018-12-06T16:59:33.622Z,11.70
2018-12-06T17:02:02.107Z,11.70
2018-12-06T17:04:34.452Z,11.70
2018-12-06T17:07:02.832Z,11.70
2018-12-06T17:09:31.143Z,11.70
2018-12-06T17:11:59.463Z,11.60
2018-12-06T17:14:28.005Z,11.60
2018-12-06T17:16:56.303Z,11.60
2018-12-06T17:19:25.085Z,11.60
2018-12-06T17:21:53.492Z,11.60
2018-12-06T17:24:21.800Z,11.70
2018-12-06T17:26:50.140Z,11.60
2018-12-06T17:29:18.464Z,11.70
2018-12-06T17:31:46.740Z,11.70
2018-12-06T17:34:15.071Z,11.60
2018-12-06T17:36:43.553Z,11.60
2018-12-06T17:39:11.872Z,11.70
2018-12-06T17:41:40.258Z,11.70
2018-12-06T17:44:08.841Z,11.60
2018-12-06T17:46:37.268Z,11.60
2018-12-06T17:49:05.576Z,11.60
2018-12-06T17:51:33.945Z,11.60
2018-12-06T17:54:02.312Z,11.60
2018-12-06T17:56:31.116Z,11.60
2018-12-06T17:58:59.412Z,11.60
2018-12-06T18:01:28.410Z,11.60
2018-12-06T18:03:56.966Z,11.60
2018-12-06T18:06:25.489Z,11.60
2018-12-06T18:08:53.794Z,11.60
2018-12-06T18:11:22.121Z,11.60
2018-12-06T18:13:50.496Z,11.70
2018-12-06T18:16:19.752Z,11.70
2018-12-06T18:18:48.196Z,11.70
2018-12-06T18:21:17.883Z,11.70
2018-12-06T18:26:39.325Z,11.70
2018-12-06T18:29:07.636Z,11.70
2018-12-06T18:31:36.027Z,11.70
2018-12-06T18:34:04.652Z,11.70
2018-12-06T18:36:33.157Z,11.80
2018-12-06T18:39:01.544Z,11.80
2018-12-06T18:41:29.840Z,11.80
2018-12-06T18:43:58.168Z,11.80
2018-12-06T18:46:26.636Z,11.80
2018-12-06T18:48:56.390Z,11.80
2018-12-06T18:51:24.771Z,11.80
2018-12-06T18:53:53.447Z,11.80
2018-12-06T18:56:21.888Z,11.90
2018-12-06T18:58:50.355Z,11.90
2018-12-06T19:01:18.746Z,12.00
2018-12-06T19:03:51.097Z,12.00
2018-12-06T19:06:19.636Z,11.90
2018-12-06T19:08:48.133Z,11.90
2018-12-06T19:11:16.506Z,12.00
2018-12-06T19:13:45.088Z,12.00
2018-12-06T19:29:21.706Z,12.00
2018-12-06T19:31:50.233Z,11.90
2018-12-06T19:34:18.521Z,11.80
2018-12-06T19:36:46.910Z,11.80
2018-12-06T19:39:15.618Z,11.70
2018-12-06T19:41:44.042Z,11.70
2018-12-06T19:44:14.219Z,11.60
2018-12-06T19:46:42.556Z,11.60
2018-12-06T19:49:19.297Z,11.60
2018-12-06T19:52:12.289Z,11.50
2018-12-06T19:54:41.427Z,11.50
2018-12-06T19:57:09.677Z,11.50
2018-12-06T19:59:38.128Z,11.50
2018-12-06T20:02:06.796Z,11.40
2018-12-06T20:05:03.486Z,11.40
2018-12-06T20:07:32.700Z,11.40
2018-12-06T20:10:20.342Z,11.40
2018-12-06T20:13:22.201Z,11.50
2018-12-06T20:16:29.773Z,11.50
2018-12-06T20:19:02.430Z,11.50
2018-12-06T20:21:31.729Z,11.50
2018-12-06T20:24:00.344Z,11.50
2018-12-06T20:26:30.673Z,11.50
2018-12-06T20:28:59.887Z,11.60
2018-12-06T20:31:31.143Z,11.60
2018-12-06T20:34:00.960Z,11.60
2018-12-06T20:36:50.144Z,11.60
2018-12-06T20:39:19.217Z,11.60
2018-12-06T20:41:47.686Z,11.70
2018-12-06T20:44:16.283Z,11.70
2018-12-06T20:46:45.328Z,11.70
2018-12-06T20:49:13.725Z,12.20
2018-12-06T20:51:42.501Z,11.70
2018-12-06T20:54:10.828Z,11.70
2018-12-06T20:56:39.208Z,11.70
2018-12-06T20:59:07.596Z,11.80
2018-12-06T21:01:38.963Z,11.80
2018-12-06T21:04:08.745Z,11.80
2018-12-06T21:06:37.334Z,11.80
2018-12-06T21:09:07.650Z,11.90
2018-12-06T21:14:33.489Z,12.00
2018-12-06T21:17:02.097Z,12.00
2018-12-06T21:19:31.107Z,12.00
2018-12-06T21:21:59.736Z,12.00
2018-12-06T21:24:33.601Z,12.00
2018-12-06T21:27:01.957Z,12.00
2018-12-06T21:29:30.304Z,12.00
2018-12-06T21:31:58.774Z,12.00
2018-12-06T21:34:28.465Z,12.00
2018-12-06T21:36:57.709Z,12.00
2018-12-06T21:39:26.155Z,12.10
2018-12-06T21:41:55.846Z,12.10
2018-12-06T21:44:24.874Z,12.00
2018-12-06T21:46:56.653Z,12.10
2018-12-06T21:49:24.954Z,12.10
2018-12-06T21:51:53.302Z,12.10
2018-12-06T21:54:21.844Z,12.10
2018-12-06T21:56:50.128Z,12.20
2018-12-06T21:59:18.423Z,12.10
2018-12-06T22:01:46.730Z,12.10
2018-12-06T22:04:15.142Z,12.20
2018-12-06T22:06:43.475Z,12.20
2018-12-06T22:09:11.996Z,12.30
2018-12-06T22:11:40.432Z,12.30
2018-12-06T22:14:08.786Z,12.30
2018-12-06T22:16:37.736Z,12.30
2018-12-06T22:19:09.235Z,12.30
2018-12-06T22:21:37.596Z,12.30
2018-12-06T22:24:06.097Z,12.20
2018-12-06T22:26:34.353Z,12.20
2018-12-06T22:29:04.879Z,12.10
2018-12-06T22:31:33.275Z,12.10
2018-12-06T22:34:01.601Z,12.10
2018-12-06T22:36:29.895Z,12.00
2018-12-06T22:38:58.652Z,12.00
2018-12-06T22:41:27.135Z,12.00
2018-12-06T22:43:55.477Z,11.90
2018-12-06T22:46:23.808Z,11.90
2018-12-06T22:48:52.241Z,11.90
2018-12-06T22:51:24.216Z,11.80
2018-12-06T22:53:51.079Z,11.70
2018-12-06T22:56:19.443Z,11.70
2018-12-06T22:58:47.828Z,11.70
2018-12-06T23:01:18.195Z,11.70
2018-12-06T23:03:46.522Z,11.70
2018-12-06T23:06:15.330Z,11.70
2018-12-06T23:08:43.719Z,11.70
2018-12-06T23:11:12.367Z,11.70
2018-12-06T23:13:40.767Z,11.70
2018-12-06T23:16:09.045Z,11.70
2018-12-06T23:18:37.315Z,11.60
2018-12-06T23:21:05.751Z,11.60
2018-12-06T23:23:34.104Z,11.60
2018-12-06T23:26:02.364Z,11.60
2018-12-06T23:28:30.833Z,11.50
2018-12-06T23:30:59.174Z,11.50
2018-12-06T23:33:31.939Z,11.50
2018-12-06T23:35:57.732Z,11.50
2018-12-06T23:38:26.330Z,11.50
2018-12-06T23:40:54.593Z,11.50
2018-12-06T23:43:23.512Z,11.40
2018-12-06T23:45:51.783Z,11.40
2018-12-06T23:48:20.266Z,11.40
2018-12-06T23:50:49.713Z,11.40
2018-12-06T23:53:18.050Z,11.30
2018-12-06T23:55:46.428Z,11.40
2018-12-06T23:58:14.725Z,11.30
